Time;durP1;ratioP1;P1;durP2;ratioP2;P2;SDS_P1;SDS_P2;PMS_P1;PMS_P2;Temp;Humidity;BMP_temperature;BMP_pressure;BME280_temperature;BME280_humidity;BME280_pressure;Samples;Min_cycle;Max_cycle;Signal;HPM_P1;HPM_P2
2023/06/26 00:00:07;;;;;;;8.32;6.38;;;;;18.60;94272.00;;;;7396349;19;20211;-79
2023/06/26 00:02:35;;;;;;;7.22;5.90;;;;;18.60;94273.00;;;;7397938;19;20211;-81
2023/06/26 00:05:10;;;;;;;6.05;5.45;;;;;18.70;94273.00;;;;7400521;19;20626;-79
2023/06/26 00:07:38;;;;;;;6.50;5.78;;;;;18.70;94269.00;;;;7404540;19;20754;-81
2023/06/26 00:10:12;;;;;;;6.40;5.72;;;;;18.70;94274.00;;;;7402477;19;20141;-79
2023/06/26 00:12:39;;;;;;;8.77;6.35;;;;;18.90;94266.00;;;;7401853;19;20151;-81
2023/06/26 00:15:14;;;;;;;6.00;5.20;;;;;18.90;94267.00;;;;7400856;19;20144;-80
2023/06/26 00:17:41;;;;;;;6.57;5.75;;;;;18.60;94274.00;;;;7399112;19;20151;-78
2023/06/26 00:20:18;;;;;;;6.50;5.75;;;;;18.50;94278.00;;;;7396483;19;20179;-80
2023/06/26 00:22:46;;;;;;;7.18;5.60;;;;;18.60;94267.00;;;;7403046;19;20140;-79
2023/06/26 00:25:22;;;;;;;6.35;5.68;;;;;18.50;94274.00;;;;7403601;19;20148;-78
2023/06/26 00:27:56;;;;;;;7.55;6.10;;;;;18.30;94270.00;;;;7401627;19;20499;-77
2023/06/26 00:30:23;;;;;;;6.82;5.75;;;;;18.30;94271.00;;;;7398738;19;20747;-81
2023/06/26 00:32:58;;;;;;;8.75;6.18;;;;;18.50;94274.00;;;;7394414;19;20640;-77
2023/06/26 00:35:28;;;;;;;6.38;5.60;;;;;18.50;94263.00;;;;7402544;19;20601;-80
2023/06/26 00:37:56;;;;;;;6.93;5.53;;;;;18.60;94275.00;;;;7399570;19;21146;-79
2023/06/26 00:40:31;;;;;;;8.02;5.82;;;;;18.50;94267.00;;;;7399909;19;20617;-78
2023/06/26 00:43:05;;;;;;;6.93;6.10;;;;;18.60;94259.00;;;;7399973;19;20612;-78
2023/06/26 00:45:39;;;;;;;7.53;6.07;;;;;18.50;94266.00;;;;7399964;19;20141;-79
2023/06/26 00:48:16;;;;;;;7.18;5.85;;;;;18.50;94267.00;;;;7399949;19;20505;-76
2023/06/26 00:50:53;;;;;;;9.30;5.97;;;;;18.60;94269.00;;;;7399933;19;20141;-79
2023/06/26 00:53:30;;;;;;;7.57;5.88;;;;;18.50;94265.00;;;;7397585;19;20179;-80
2023/06/26 00:56:06;;;;;;;8.85;6.13;;;;;19.00;94273.00;;;;7400350;19;20168;-78
2023/06/26 00:58:40;;;;;;;7.32;5.82;;;;;18.90;94266.00;;;;7398846;19;20135;-78
2023/06/26 01:01:17;;;;;;;9.88;6.22;;;;;18.80;94269.00;;;;7400724;19;20141;-78
2023/06/26 01:03:58;;;;;;;7.38;5.68;;;;;18.70;94271.00;;;;7399970;19;20149;-79
2023/06/26 01:06:35;;;;;;;7.40;5.78;;;;;18.50;94266.00;;;;7399757;19;20129;-79
2023/06/26 01:09:10;;;;;;;8.57;6.25;;;;;18.70;94268.00;;;;7400744;19;20629;-78
2023/06/26 01:11:37;;;;;;;7.20;5.50;;;;;18.60;94267.00;;;;7398726;19;20151;-78
2023/06/26 01:14:13;;;;;;;6.25;5.63;;;;;18.60;94263.00;;;;7399130;19;20261;-79
2023/06/26 01:16:47;;;;;;;6.68;5.97;;;;;18.50;94265.00;;;;7398642;19;20605;-78
2023/06/26 01:19:28;;;;;;;9.88;6.38;;;;;18.40;94263.00;;;;7401172;19;20147;-77
2023/06/26 01:22:30;;;;;;;7.35;6.03;;;;;18.30;94260.00;;;;7399054;19;20161;-79
2023/06/26 01:25:38;;;;;;;7.18;5.78;;;;;18.20;94252.00;;;;7399366;19;20140;-78
2023/06/26 01:28:14;;;;;;;7.38;6.57;;;;;18.10;94254.00;;;;7400810;19;20149;-78
2023/06/26 01:30:50;;;;;;;8.82;6.32;;;;;18.40;94252.00;;;;7397989;19;20146;-78
2023/06/26 01:33:26;;;;;;;7.05;5.85;;;;;18.30;94244.00;;;;7398477;19;20159;-78
2023/06/26 01:35:54;;;;;;;6.28;5.50;;;;;18.10;94245.00;;;;7398309;19;20468;-78
2023/06/26 01:38:30;;;;;;;6.30;5.65;;;;;17.90;94241.00;;;;7399552;19;20147;-78
2023/06/26 01:41:05;;;;;;;6.88;5.05;;;;;17.90;94237.00;;;;7398938;19;20591;-77
2023/06/26 01:43:59;;;;;;;7.78;5.85;;;;;18.00;94238.00;;;;7398881;19;20129;-77
2023/06/26 01:47:03;;;;;;;7.53;5.50;;;;;18.40;94227.00;;;;7397056;19;20656;-77
2023/06/26 01:49:58;;;;;;;6.70;5.45;;;;;18.20;94232.00;;;;7394205;19;20145;-78
2023/06/26 01:53:00;;;;;;;6.55;5.35;;;;;18.10;94233.00;;;;7394698;19;20644;-77
2023/06/26 01:55:51;;;;;;;6.22;5.43;;;;;18.00;94239.00;;;;7398336;19;20738;-77
2023/06/26 01:58:25;;;;;;;6.50;5.75;;;;;18.20;94232.00;;;;7398315;19;20129;-77
2023/06/26 02:01:01;;;;;;;7.53;5.72;;;;;18.40;94232.00;;;;7395995;19;20172;-79
2023/06/26 02:03:32;;;;;;;6.35;5.00;;;;;18.40;94223.00;;;;7397746;19;20136;-77
2023/06/26 02:06:08;;;;;;;6.53;5.13;;;;;18.20;94232.00;;;;7397466;19;20192;-78
2023/06/26 02:08:42;;;;;;;9.50;5.43;;;;;18.40;94236.00;;;;7396026;19;20145;-77
2023/06/26 02:11:18;;;;;;;6.20;5.30;;;;;18.40;94232.00;;;;7396256;19;20191;-77
2023/06/26 02:13:52;;;;;;;5.22;4.65;;;;;18.40;94229.00;;;;7395402;19;20142;-77
2023/06/26 02:16:20;;;;;;;6.38;5.43;;;;;18.50;94238.00;;;;7396224;19;20136;-79
2023/06/26 02:18:59;;;;;;;7.32;5.40;;;;;18.50;94236.00;;;;7396992;19;20527;-79
2023/06/26 02:21:29;;;;;;;7.38;5.07;;;;;18.50;94238.00;;;;7396118;19;20183;-75
2023/06/26 02:24:05;;;;;;;6.35;5.50;;;;;18.40;94235.00;;;;7394093;19;20633;-78
2023/06/26 02:26:33;;;;;;;7.47;5.70;;;;;18.60;94229.00;;;;7397712;19;20145;-77
2023/06/26 02:29:07;;;;;;;7.57;5.10;;;;;18.60;94228.00;;;;7395994;19;20153;-78
2023/06/26 02:31:35;;;;;;;6.80;5.55;;;;;18.70;94240.00;;;;7393648;19;20159;-78
2023/06/26 02:34:12;;;;;;;8.65;5.82;;;;;18.80;94232.00;;;;7395110;19;20142;-76
2023/06/26 02:36:46;;;;;;;6.38;5.15;;;;;18.90;94228.00;;;;7396168;19;20144;-77
2023/06/26 02:39:22;;;;;;;6.40;5.18;;;;;19.10;94231.00;;;;7394346;19;20156;-78
2023/06/26 02:41:56;;;;;;;6.68;5.15;;;;;19.00;94231.00;;;;7395178;19;20148;-77
2023/06/26 02:44:30;;;;;;;5.60;5.03;;;;;18.80;94226.00;;;;7398081;19;20133;-77
2023/06/26 02:46:58;;;;;;;5.30;4.78;;;;;18.60;94228.00;;;;7394665;19;20146;-76
2023/06/26 02:49:33;;;;;;;7.57;4.82;;;;;19.00;94226.00;;;;7392527;19;20975;-77
2023/06/26 02:52:09;;;;;;;6.22;5.25;;;;;18.90;94226.00;;;;7396243;19;20232;-78
2023/06/26 02:54:54;;;;;;;5.53;4.85;;;;;18.70;94233.00;;;;7396350;19;20628;-78
2023/06/26 02:57:22;;;;;;;5.32;4.65;;;;;18.60;94235.00;;;;7395581;19;20140;-78
2023/06/26 02:59:56;;;;;;;6.13;5.15;;;;;18.40;94232.00;;;;7395163;19;20608;-77
2023/06/26 03:02:23;;;;;;;6.00;5.10;;;;;18.40;94236.00;;;;7396170;19;20633;-78
2023/06/26 03:04:52;;;;;;;6.97;5.13;;;;;18.40;94234.00;;;;7397333;19;20140;-79
2023/06/26 03:07:28;;;;;;;6.90;5.18;;;;;18.20;94237.00;;;;7395046;19;20152;-79
2023/06/26 03:10:02;;;;;;;5.38;4.80;;;;;18.20;94238.00;;;;7399834;19;20196;-78
2023/06/26 03:12:39;;;;;;;6.18;5.35;;;;;18.60;94241.00;;;;7395221;19;20148;-79
2023/06/26 03:15:13;;;;;;;5.90;4.88;;;;;18.70;94239.00;;;;7395343;19;20148;-79
2023/06/26 03:17:50;;;;;;;7.07;4.72;;;;;18.60;94236.00;;;;7396486;19;20223;-78
2023/06/26 03:20:24;;;;;;;5.03;4.50;;;;;18.70;94238.00;;;;7394398;19;20152;-78
2023/06/26 03:22:52;;;;;;;5.88;4.90;;;;;18.70;94239.00;;;;7393961;19;20164;-79
2023/06/26 03:25:27;;;;;;;6.88;4.65;;;;;18.80;94239.00;;;;7394474;19;20909;-75
2023/06/26 03:28:00;;;;;;;5.90;4.70;;;;;18.80;94239.00;;;;7394710;19;20150;-78
2023/06/26 03:30:42;;;;;;;5.93;4.93;;;;;18.70;94238.00;;;;7388966;19;20611;-77
2023/06/26 03:33:12;;;;;;;5.65;4.97;;;;;18.60;94243.00;;;;7390142;19;20142;-79
2023/06/26 03:35:47;;;;;;;5.75;4.93;;;;;18.50;94247.00;;;;7393694;19;20144;-79
2023/06/26 03:38:17;;;;;;;7.05;4.53;;;;;18.70;94248.00;;;;7401279;19;20696;-78
2023/06/26 03:40:52;;;;;;;5.65;5.05;;;;;18.60;94240.00;;;;7398837;19;20152;-78
2023/06/26 03:43:27;;;;;;;5.38;4.53;;;;;18.60;94239.00;;;;7398711;19;20926;-78
2023/06/26 03:45:54;;;;;;;5.38;4.68;;;;;18.60;94231.00;;;;7402015;19;20240;-77
2023/06/26 03:48:31;;;;;;;8.27;4.50;;;;;18.60;94248.00;;;;7398230;19;20140;-78
2023/06/26 03:51:07;;;;;;;8.60;4.57;;;;;18.50;94238.00;;;;7401451;19;20152;-79
2023/06/26 03:53:47;;;;;;;7.53;4.90;;;;;18.60;94242.00;;;;7398584;19;20215;-77
2023/06/26 03:56:22;;;;;;;5.53;4.88;;;;;18.50;94240.00;;;;7400400;19;20172;-77
2023/06/26 03:58:52;;;;;;;8.32;4.82;;;;;18.50;94240.00;;;;7397319;19;20140;-78
2023/06/26 04:01:25;;;;;;;5.90;5.05;;;;;18.60;94231.00;;;;7395023;19;20171;-79
2023/06/26 04:03:55;;;;;;;7.20;5.15;;;;;18.70;94238.00;;;;7397876;19;20144;-79
2023/06/26 04:06:33;;;;;;;6.55;4.75;;;;;18.60;94240.00;;;;7397588;19;20617;-77
2023/06/26 04:09:08;;;;;;;5.40;4.40;;;;;18.60;94237.00;;;;7396066;19;20174;-80
2023/06/26 04:11:53;;;;;;;6.25;5.00;;;;;18.70;94241.00;;;;7400318;19;20156;-77
2023/06/26 04:14:28;;;;;;;5.13;4.63;;;;;18.80;94246.00;;;;7398727;19;20153;-79
2023/06/26 04:17:08;;;;;;;5.53;4.82;;;;;19.10;94238.00;;;;7399689;19;20144;-77
2023/06/26 04:19:42;;;;;;;5.72;5.07;;;;;19.20;94249.00;;;;7399921;19;20212;-77
2023/06/26 04:22:15;;;;;;;6.15;5.00;;;;;19.50;94241.00;;;;7401077;19;20140;-77
2023/06/26 04:24:50;;;;;;;5.43;4.57;;;;;19.40;94241.00;;;;7401238;19;20216;-78
2023/06/26 04:27:28;;;;;;;7.60;4.95;;;;;19.50;94249.00;;;;7400582;19;20148;-78
2023/06/26 04:29:56;;;;;;;4.82;4.32;;;;;19.60;94247.00;;;;7401192;19;20124;-79
2023/06/26 04:32:32;;;;;;;5.20;4.70;;;;;19.60;94241.00;;;;7400668;19;20132;-76
2023/06/26 04:35:00;;;;;;;5.53;5.03;;;;;19.60;94235.00;;;;7399299;19;20139;-78
2023/06/26 04:37:34;;;;;;;7.53;4.78;;;;;19.60;94237.00;;;;7402285;19;20510;-78
2023/06/26 04:40:05;;;;;;;5.25;4.47;;;;;19.80;94240.00;;;;7399258;19;20147;-77
2023/06/26 04:42:40;;;;;;;6.15;4.70;;;;;20.00;94233.00;;;;7399241;19;20166;-79
2023/06/26 04:45:08;;;;;;;5.15;4.65;;;;;20.20;94231.00;;;;7395916;19;20137;-78
2023/06/26 04:47:44;;;;;;;6.55;4.65;;;;;20.30;94236.00;;;;7398382;19;20128;-77
2023/06/26 04:50:12;;;;;;;7.47;4.90;;;;;20.50;94235.00;;;;7398094;19;20140;-77
2023/06/26 04:53:03;;;;;;;6.38;4.40;;;;;20.70;94241.00;;;;7398502;19;20911;-78
2023/06/26 04:55:42;;;;;;;8.15;4.53;;;;;20.90;94230.00;;;;7399526;19;20597;-76
2023/06/26 04:58:18;;;;;;;6.50;4.90;;;;;20.90;94225.00;;;;7399703;19;20189;-79
2023/06/26 05:00:53;;;;;;;5.05;4.50;;;;;21.10;94226.00;;;;7398086;19;20501;-77
2023/06/26 05:03:29;;;;;;;8.73;5.05;;;;;21.20;94232.00;;;;7399841;19;20139;-77
2023/06/26 05:05:57;;;;;;;5.25;4.70;;;;;21.50;94231.00;;;;7398238;19;20158;-78
2023/06/26 05:08:36;;;;;;;6.00;5.07;;;;;21.70;94227.00;;;;7401193;19;20139;-79
2023/06/26 05:11:15;;;;;;;8.52;5.00;;;;;21.90;94226.00;;;;7397288;19;20144;-79
2023/06/26 05:13:43;;;;;;;5.40;4.75;;;;;22.10;94220.00;;;;7397572;19;20642;-79
2023/06/26 05:16:18;;;;;;;5.63;4.47;;;;;22.10;94225.00;;;;7397887;19;20144;-76
2023/06/26 05:18:52;;;;;;;5.80;4.95;;;;;22.40;94219.00;;;;7376388;19;20588;-76
2023/06/26 05:21:37;;;;;;;5.13;4.63;;;;;22.40;94223.00;;;;7389459;19;20200;-78
2023/06/26 05:24:15;;;;;;;5.00;4.50;;;;;22.60;94223.00;;;;7389315;19;20616;-76
2023/06/26 05:26:59;;;;;;;12.80;4.88;;;;;22.70;94230.00;;;;7390859;19;20596;-78
2023/06/26 05:29:34;;;;;;;5.35;4.63;;;;;22.80;94227.00;;;;7388614;19;20505;-79
2023/06/26 05:32:08;;;;;;;6.05;4.57;;;;;22.90;94228.00;;;;7387576;19;20156;-78
2023/06/26 05:34:48;;;;;;;5.50;4.75;;;;;23.00;94231.00;;;;7387790;19;20141;-79
2023/06/26 05:37:28;;;;;;;5.18;4.68;;;;;23.20;94224.00;;;;7388421;19;20160;-79
2023/06/26 05:40:04;;;;;;;5.70;4.55;;;;;23.40;94223.00;;;;7386546;19;20425;-78
2023/06/26 05:42:39;;;;;;;5.20;4.70;;;;;23.60;94225.00;;;;7389186;19;20137;-79
2023/06/26 05:45:14;;;;;;;8.27;4.45;;;;;23.60;94228.00;;;;7386103;19;20148;-79
2023/06/26 05:48:02;;;;;;;4.78;4.10;;;;;23.70;94225.00;;;;7388370;19;20168;-78
2023/06/26 05:50:31;;;;;;;5.38;4.72;;;;;24.00;94230.00;;;;7386173;19;20158;-78
2023/06/26 05:53:27;;;;;;;4.93;4.10;;;;;24.50;94230.00;;;;7386480;19;20180;-77
2023/06/26 05:56:03;;;;;;;6.60;4.40;;;;;24.20;94227.00;;;;7385758;19;20160;-77
2023/06/26 05:58:42;;;;;;;4.90;4.40;;;;;24.80;94234.00;;;;7385955;19;20931;-80
2023/06/26 06:01:10;;;;;;;5.22;4.25;;;;;25.10;94233.00;;;;7385575;19;20646;-81
2023/06/26 06:03:45;;;;;;;5.05;4.50;;;;;25.30;94230.00;;;;7388686;19;20488;-79
2023/06/26 06:06:12;;;;;;;6.55;4.13;;;;;25.40;94236.00;;;;7388399;19;20218;-78
2023/06/26 06:08:46;;;;;;;5.85;4.38;;;;;25.90;94229.00;;;;7385973;19;20616;-80
2023/06/26 06:11:16;;;;;;;6.95;4.07;;;;;25.90;94231.00;;;;7388008;19;20137;-78
2023/06/26 06:13:50;;;;;;;4.65;4.15;;;;;26.10;94236.00;;;;7385701;19;20155;-75
2023/06/26 06:16:23;;;;;;;4.80;4.40;;;;;26.40;94241.00;;;;7386749;19;20133;-77
2023/06/26 06:19:02;;;;;;;5.10;4.18;;;;;26.60;94236.00;;;;7385241;19;20155;-76
2023/06/26 06:21:30;;;;;;;4.47;3.95;;;;;26.70;94244.00;;;;7386480;19;20153;-81
2023/06/26 06:24:06;;;;;;;4.55;4.07;;;;;27.20;94242.00;;;;7387601;19;20645;-83
2023/06/26 06:26:34;;;;;;;6.78;4.28;;;;;27.70;94238.00;;;;7387659;19;20166;-83
2023/06/26 06:29:19;;;;;;;8.23;4.72;;;;;27.90;94242.00;;;;7387767;19;20224;-78
2023/06/26 06:31:52;;;;;;;7.72;4.38;;;;;27.70;94249.00;;;;7386548;19;20219;-79
2023/06/26 06:34:29;;;;;;;4.95;4.40;;;;;27.70;94242.00;;;;7384948;19;20155;-80
2023/06/26 06:36:59;;;;;;;4.63;4.20;;;;;28.10;94239.00;;;;7383496;19;20166;-77
2023/06/26 06:39:27;;;;;;;4.65;4.25;;;;;28.50;94243.00;;;;7384990;19;20133;-78
2023/06/26 06:42:01;;;;;;;4.65;4.25;;;;;27.10;94252.00;;;;7383566;19;20144;-82
2023/06/26 06:44:36;;;;;;;4.32;3.92;;;;;26.50;94254.00;;;;7382639;19;20490;-80
2023/06/26 06:47:10;;;;;;;5.43;4.03;;;;;26.70;94254.00;;;;7383717;19;20605;-77
2023/06/26 06:49:50;;;;;;;4.50;4.10;;;;;26.90;94255.00;;;;7380198;19;20477;-77
2023/06/26 06:52:38;;;;;;;4.72;4.25;;;;;26.60;94264.00;;;;7382455;19;20133;-78
2023/06/26 06:55:12;;;;;;;6.43;4.55;;;;;26.90;94257.00;;;;7382029;19;20173;-77
2023/06/26 06:57:46;;;;;;;4.65;3.85;;;;;26.60;94261.00;;;;7381650;19;23744;-77
2023/06/26 07:00:20;;;;;;;4.25;3.85;;;;;26.30;94261.00;;;;7381271;19;20135;-78
2023/06/26 07:02:56;;;;;;;4.43;4.03;;;;;25.90;94254.00;;;;7382487;19;20211;-79
2023/06/26 07:05:31;;;;;;;5.80;4.70;;;;;26.10;94250.00;;;;7380880;19;20157;-79
2023/06/26 07:08:05;;;;;;;4.50;4.10;;;;;26.00;94248.00;;;;7380633;19;20160;-78
2023/06/26 07:10:33;;;;;;;7.45;4.25;;;;;25.90;94252.00;;;;7381732;19;20149;-76
2023/06/26 07:13:08;;;;;;;6.60;3.92;;;;;26.00;94239.00;;;;7388529;19;20521;-77
2023/06/26 07:15:39;;;;;;;4.60;4.20;;;;;26.30;94250.00;;;;7387265;19;20489;-81
2023/06/26 07:18:13;;;;;;;4.20;3.80;;;;;26.70;94239.00;;;;7386410;19;20496;-78
2023/06/26 07:20:41;;;;;;;4.55;4.10;;;;;26.50;94253.00;;;;7387823;19;20128;-77
2023/06/26 07:23:17;;;;;;;6.40;3.65;;;;;26.60;94256.00;;;;7389391;19;20213;-77
2023/06/26 07:25:52;;;;;;;5.38;4.18;;;;;26.10;94242.00;;;;7388367;19;20626;-81
2023/06/26 07:28:34;;;;;;;7.28;4.50;;;;;26.20;94249.00;;;;7393651;19;20162;-83
2023/06/26 07:31:05;;;;;;;4.43;4.03;;;;;26.30;94260.00;;;;7400135;19;20488;-78
2023/06/26 07:33:42;;;;;;;6.30;4.15;;;;;26.30;94264.00;;;;7398646;19;20163;-77
2023/06/26 07:36:12;;;;;;;5.18;4.40;;;;;26.40;94266.00;;;;7399114;19;20490;-74
2023/06/26 07:38:46;;;;;;;4.55;4.15;;;;;26.70;94260.00;;;;7398736;19;20158;-76
2023/06/26 07:41:14;;;;;;;4.97;3.92;;;;;27.10;94261.00;;;;7395497;19;20153;-77
2023/06/26 07:43:52;;;;;;;4.60;4.10;;;;;27.30;94269.00;;;;7395573;19;20178;-74
2023/06/26 07:46:28;;;;;;;4.65;4.25;;;;;27.30;94267.00;;;;7393832;19;20160;-79
2023/06/26 07:49:02;;;;;;;7.75;4.03;;;;;27.60;94269.00;;;;7392471;19;20133;-75
2023/06/26 07:51:37;;;;;;;5.43;4.32;;;;;27.70;94265.00;;;;7394114;19;20148;-77
2023/06/26 07:54:17;;;;;;;4.93;4.43;;;;;27.90;94263.00;;;;7394110;19;20500;-76
2023/06/26 07:57:06;;;;;;;4.68;4.15;;;;;28.10;94264.00;;;;7387740;19;20125;-78
2023/06/26 07:59:39;;;;;;;4.80;4.28;;;;;28.10;94268.00;;;;7388803;19;20153;-78
2023/06/26 08:02:18;;;;;;;4.93;4.47;;;;;28.20;94261.00;;;;7393978;19;20153;-80
2023/06/26 08:04:46;;;;;;;6.93;5.18;;;;;28.00;94266.00;;;;7389264;19;20200;-76
2023/06/26 08:07:21;;;;;;;6.82;4.53;;;;;27.50;94274.00;;;;7388235;19;20188;-78
2023/06/26 08:09:50;;;;;;;7.32;4.38;;;;;27.90;94264.00;;;;7385871;19;20152;-78
2023/06/26 08:12:25;;;;;;;6.45;4.60;;;;;27.60;94265.00;;;;7385645;19;20152;-75
2023/06/26 08:14:54;;;;;;;4.30;3.90;;;;;27.80;94260.00;;;;7386316;19;20212;-83
2023/06/26 08:17:31;;;;;;;6.05;4.85;;;;;28.30;94263.00;;;;7387649;19;20154;-81
2023/06/26 08:20:08;;;;;;;5.35;4.85;;;;;28.60;94260.00;;;;7387162;19;20144;-76
2023/06/26 08:22:42;;;;;;;6.18;4.25;;;;;28.60;94255.00;;;;7382881;19;20148;-74
2023/06/26 08:25:19;;;;;;;5.03;4.53;;;;;28.20;94261.00;;;;7387808;19;20153;-76
2023/06/26 08:27:53;;;;;;;4.50;4.10;;;;;28.20;94266.00;;;;7385475;19;20508;-80
2023/06/26 08:30:22;;;;;;;5.10;4.70;;;;;28.60;94260.00;;;;7387116;19;20133;-75
2023/06/26 08:32:56;;;;;;;6.10;4.72;;;;;28.60;94268.00;;;;7384872;19;20223;-73
2023/06/26 08:35:30;;;;;;;5.38;4.82;;;;;28.10;94266.00;;;;7386694;19;20159;-75
2023/06/26 08:37:58;;;;;;;5.22;4.70;;;;;27.90;94267.00;;;;7385194;19;20164;-77
2023/06/26 08:40:32;;;;;;;5.05;4.55;;;;;28.10;94273.00;;;;7386773;19;20527;-73
2023/06/26 08:43:07;;;;;;;6.80;4.93;;;;;28.10;94262.00;;;;7386158;19;20148;-78
2023/06/26 08:45:42;;;;;;;6.35;4.95;;;;;27.80;94272.00;;;;7387005;19;20171;-76
2023/06/26 08:48:13;;;;;;;6.80;4.60;;;;;27.70;94270.00;;;;7385331;19;20621;-76
2023/06/26 08:50:56;;;;;;;9.48;4.78;;;;;28.00;94263.00;;;;7385164;19;20132;-76
2023/06/26 08:54:02;;;;;;;5.07;4.60;;;;;27.90;94272.00;;;;7384427;19;20511;-79
2023/06/26 08:56:49;;;;;;;6.97;5.30;;;;;28.30;94255.00;;;;7382712;19;20152;-75
2023/06/26 08:59:23;;;;;;;5.18;4.68;;;;;29.20;94264.00;;;;7384872;19;20212;-77
2023/06/26 09:01:57;;;;;;;5.03;4.53;;;;;29.60;94261.00;;;;7385612;19;20634;-76
2023/06/26 09:04:26;;;;;;;5.47;4.97;;;;;29.20;94272.00;;;;7384369;19;20529;-76
2023/06/26 09:07:01;;;;;;;5.97;4.70;;;;;28.40;94255.00;;;;7384158;19;20166;-79
2023/06/26 09:09:31;;;;;;;5.70;4.82;;;;;29.20;94265.00;;;;7385804;19;20168;-75
2023/06/26 09:12:05;;;;;;;7.82;4.97;;;;;29.10;94265.00;;;;7384955;19;20467;-82
2023/06/26 09:14:40;;;;;;;5.07;4.57;;;;;29.30;94271.00;;;;7383947;19;20136;-76
2023/06/26 09:17:26;;;;;;;15.20;5.47;;;;;29.00;94270.00;;;;7383170;19;20644;-77
2023/06/26 09:20:01;;;;;;;9.15;5.38;;;;;29.30;94280.00;;;;7386016;19;20132;-77
2023/06/26 09:22:29;;;;;;;6.10;5.45;;;;;28.60;94268.00;;;;7386605;19;20152;-77
2023/06/26 09:25:07;;;;;;;5.55;5.05;;;;;29.40;94275.00;;;;7386030;19;20124;-78
2023/06/26 09:27:43;;;;;;;10.25;5.80;;;;;28.80;94271.00;;;;7385572;19;20186;-77
2023/06/26 09:30:20;;;;;;;11.32;6.00;;;;;29.40;94288.00;;;;7383243;19;20149;-78
2023/06/26 09:32:54;;;;;;;7.05;6.38;;;;;29.00;94285.00;;;;7384777;19;20208;-76
2023/06/26 09:35:28;;;;;;;8.45;6.20;;;;;28.50;94308.00;;;;7384696;19;20241;-78
2023/06/26 09:38:03;;;;;;;6.72;6.13;;;;;28.50;94289.00;;;;7384014;19;20163;-79
2023/06/26 09:40:31;;;;;;;7.90;6.43;;;;;28.70;94325.00;;;;7384190;19;20179;-78
2023/06/26 09:43:07;;;;;;;6.60;5.90;;;;;27.80;94324.00;;;;7386368;19;20140;-77
2023/06/26 09:45:38;;;;;;;6.38;5.78;;;;;27.20;94310.00;;;;7384877;19;20169;-80
2023/06/26 09:48:14;;;;;;;7.13;6.43;;;;;26.70;94312.00;;;;7383967;19;20673;-74
2023/06/26 09:50:42;;;;;;;7.97;5.88;;;;;26.80;94334.00;;;;7380836;19;20144;-78
2023/06/26 09:53:44;;;;;;;7.90;6.15;;;;;26.90;94343.00;;;;7383810;19;20637;-80
2023/06/26 09:56:19;;;;;;;6.75;6.15;;;;;27.10;94319.00;;;;7385699;19;20167;-76
2023/06/26 09:58:59;;;;;;;6.75;6.07;;;;;27.20;94312.00;;;;7384419;19;20124;-74
2023/06/26 10:01:36;;;;;;;7.30;6.10;;;;;27.40;94326.00;;;;7385553;19;20156;-76
2023/06/26 10:04:10;;;;;;;6.80;6.13;;;;;27.00;94327.00;;;;7383812;19;20148;-74
2023/06/26 10:06:51;;;;;;;10.15;6.63;;;;;27.40;94319.00;;;;7385134;19;20165;-76
2023/06/26 10:09:21;;;;;;;6.45;5.85;;;;;27.90;94330.00;;;;7385300;19;20182;-77
2023/06/26 10:12:07;;;;;;;7.88;5.80;;;;;27.30;94354.00;;;;7383236;19;20517;-79
2023/06/26 10:14:42;;;;;;;8.80;6.15;;;;;27.20;94314.00;;;;7383336;19;20156;-80
2023/06/26 10:17:20;;;;;;;9.15;6.15;;;;;28.20;94331.00;;;;7383153;19;20153;-76
2023/06/26 10:19:57;;;;;;;8.77;6.18;;;;;26.90;94357.00;;;;7386241;19;20133;-79
2023/06/26 10:22:37;;;;;;;7.18;6.35;;;;;26.80;94320.00;;;;7387467;19;20147;-75
2023/06/26 10:25:17;;;;;;;6.75;6.03;;;;;27.70;94321.00;;;;7382999;19;20191;-73
2023/06/26 10:27:53;;;;;;;8.02;6.03;;;;;28.00;94323.00;;;;7382516;19;20156;-78
2023/06/26 10:30:32;;;;;;;8.07;6.65;;;;;27.90;94329.00;;;;7383422;19;20174;-75
2023/06/26 10:33:07;;;;;;;6.93;5.90;;;;;28.50;94316.00;;;;7384484;19;21617;-75
2023/06/26 10:35:45;;;;;;;7.18;5.90;;;;;28.70;94356.00;;;;7383830;19;20171;-74
2023/06/26 10:38:20;;;;;;;6.55;5.80;;;;;27.10;94367.00;;;;7382493;19;20182;-74
2023/06/26 10:40:54;;;;;;;6.20;5.60;;;;;27.80;94330.00;;;;7381416;19;20601;-75
2023/06/26 10:43:30;;;;;;;5.72;5.18;;;;;27.60;94330.00;;;;7382874;19;20767;-75
2023/06/26 10:46:08;;;;;;;7.40;6.22;;;;;28.60;94331.00;;;;7381752;19;20155;-74
2023/06/26 10:49:04;;;;;;;8.43;5.60;;;;;28.00;94330.00;;;;7380734;19;20155;-75
2023/06/26 10:51:45;;;;;;;8.52;5.90;;;;;28.20;94335.00;;;;7382939;19;20158;-78
2023/06/26 10:54:26;;;;;;;10.68;5.53;;;;;27.30;94338.00;;;;7380411;19;20167;-76
2023/06/26 10:57:02;;;;;;;6.13;5.53;;;;;28.10;94327.00;;;;7382101;19;20160;-80
2023/06/26 10:59:40;;;;;;;10.23;6.07;;;;;28.50;94323.00;;;;7383599;19;20625;-77
2023/06/26 11:02:16;;;;;;;6.07;5.45;;;;;29.20;94352.00;;;;7381811;19;20213;-81
2023/06/26 11:04:53;;;;;;;5.72;4.88;;;;;29.50;94320.00;;;;7382723;19;20160;-77
2023/06/26 11:07:23;;;;;;;5.95;5.05;;;;;29.10;94348.00;;;;7383802;19;20150;-80
2023/06/26 11:10:10;;;;;;;6.90;5.82;;;;;28.90;94324.00;;;;7382257;19;20148;-79
2023/06/26 11:12:48;;;;;;;5.68;5.18;;;;;29.00;94336.00;;;;7382591;19;20519;-80
2023/06/26 11:15:18;;;;;;;5.68;5.07;;;;;28.10;94358.00;;;;7383172;19;20204;-79
2023/06/26 11:17:53;;;;;;;6.05;5.47;;;;;28.80;94332.00;;;;7382026;19;20145;-78
2023/06/26 11:20:28;;;;;;;5.78;5.18;;;;;29.50;94310.00;;;;7381740;19;20561;-82
2023/06/26 11:23:07;;;;;;;7.00;5.95;;;;;29.00;94335.00;;;;7383020;19;20124;-82
2023/06/26 11:25:36;;;;;;;7.93;6.20;;;;;28.50;94358.00;;;;7380729;19;20565;-80
2023/06/26 11:28:11;;;;;;;6.00;5.40;;;;;27.70;94360.00;;;;7382605;19;20669;-79
2023/06/26 11:30:45;;;;;;;8.15;5.57;;;;;28.50;94358.00;;;;7381466;19;20128;-79
2023/06/26 11:33:26;;;;;;;7.72;6.03;;;;;28.90;94351.00;;;;7381402;19;20612;-83
2023/06/26 11:36:10;;;;;;;6.88;5.82;;;;;28.10;94355.00;;;;7380613;19;20155;-79
2023/06/26 11:38:44;;;;;;;6.35;5.53;;;;;27.70;94391.00;;;;7380720;19;20609;-82
2023/06/26 11:41:18;;;;;;;7.22;5.65;;;;;27.40;94396.00;;;;7382569;19;20646;-78
2023/06/26 11:43:53;;;;;;;11.15;5.70;;;;;27.60;94376.00;;;;7381172;19;20600;-79
2023/06/26 11:46:31;;;;;;;9.25;6.22;;;;;26.90;94386.00;;;;7383842;19;20632;-85
2023/06/26 11:49:07;;;;;;;13.98;5.90;;;;;27.40;94368.00;;;;7377510;19;20204;-78
2023/06/26 11:51:38;;;;;;;6.32;5.65;;;;;27.00;94364.00;;;;7382863;19;20133;-78
2023/06/26 11:54:14;;;;;;;6.47;5.47;;;;;28.80;94387.00;;;;7382833;19;20231;-84
2023/06/26 11:56:58;;;;;;;7.60;5.78;;;;;28.40;94389.00;;;;7384051;19;20148;-80
2023/06/26 11:59:35;;;;;;;6.72;5.82;;;;;28.90;94354.00;;;;7389053;19;20136;-76
2023/06/26 12:02:21;;;;;;;9.23;5.60;;;;;28.30;94358.00;;;;7386578;19;20176;-83
2023/06/26 12:04:55;;;;;;;13.48;5.93;;;;;28.10;94355.00;;;;7389584;19;20136;-79
2023/06/26 12:07:24;;;;;;;6.05;5.50;;;;;28.80;94355.00;;;;7390253;19;20246;-79
2023/06/26 12:09:59;;;;;;;5.50;4.82;;;;;30.80;94357.00;;;;7386147;19;20152;-79
2023/06/26 12:12:28;;;;;;;6.25;5.60;;;;;29.90;94367.00;;;;7387818;19;21010;-75
2023/06/26 12:15:03;;;;;;;8.90;4.72;;;;;29.90;94350.00;;;;7388473;19;20156;-76
2023/06/26 12:17:31;;;;;;;6.65;5.35;;;;;28.70;94359.00;;;;7388061;19;20618;-77
2023/06/26 12:20:16;;;;;;;9.95;5.05;;;;;28.50;94352.00;;;;7386963;19;20153;-76
2023/06/26 12:22:50;;;;;;;8.55;5.40;;;;;28.90;94358.00;;;;7387915;19;20132;-77
2023/06/26 12:25:24;;;;;;;7.47;4.85;;;;;28.70;94356.00;;;;7387780;19;20620;-74
2023/06/26 12:27:59;;;;;;;8.60;5.35;;;;;28.60;94351.00;;;;7388032;19;20606;-78
2023/06/26 12:30:27;;;;;;;5.75;5.00;;;;;28.60;94354.00;;;;7387762;19;20152;-74
2023/06/26 12:33:01;;;;;;;4.80;4.28;;;;;28.30;94356.00;;;;7382409;19;20177;-76
2023/06/26 12:35:32;;;;;;;5.60;4.60;;;;;27.90;94346.00;;;;7385526;19;20504;-78
2023/06/26 12:38:10;;;;;;;6.85;4.47;;;;;28.60;94345.00;;;;7385031;19;20509;-78
2023/06/26 12:40:48;;;;;;;4.63;4.03;;;;;29.80;94355.00;;;;7384357;19;20136;-74
2023/06/26 12:43:26;;;;;;;5.53;4.50;;;;;29.90;94348.00;;;;7385246;19;20175;-75
2023/06/26 12:46:00;;;;;;;5.82;5.03;;;;;30.70;94348.00;;;;7384628;19;20530;-74
2023/06/26 12:48:48;;;;;;;7.00;4.63;;;;;30.80;94347.00;;;;7381713;19;20660;-78
2023/06/26 12:51:26;;;;;;;5.03;4.53;;;;;30.70;94343.00;;;;7387657;19;20124;-81
2023/06/26 12:54:07;;;;;;;6.07;4.25;;;;;30.30;94355.00;;;;7384313;19;20186;-77
2023/06/26 12:56:47;;;;;;;4.82;4.40;;;;;29.80;94343.00;;;;7385698;19;20135;-72
2023/06/26 12:59:23;;;;;;;7.82;4.47;;;;;28.70;94341.00;;;;7387276;19;20125;-81